sensor_id;sensor_type;location;lat;lon;timestamp;P1;durP1;ratioP1;P2;durP2;ratioP2
19808;SDS011;48538;32.784;-96.802;2023-06-24T00:01:34;3.72;;;2.40;;
19808;SDS011;48538;32.784;-96.802;2023-06-24T00:04:02;4.28;;;2.80;;
19808;SDS011;48538;32.784;-96.802;2023-06-24T00:06:28;3.17;;;2.33;;
19808;SDS011;48538;32.784;-96.802;2023-06-24T00:08:54;3.85;;;2.28;;
19808;SDS011;48538;32.784;-96.802;2023-06-24T00:11:30;4.55;;;2.30;;
19808;SDS011;48538;32.784;-96.802;2023-06-24T00:13:56;4.25;;;2.50;;
19808;SDS011;48538;32.784;-96.802;2023-06-24T00:16:23;4.13;;;2.80;;
19808;SDS011;48538;32.784;-96.802;2023-06-24T00:18:55;2.92;;;2.40;;
19808;SDS011;48538;32.784;-96.802;2023-06-24T00:21:26;4.22;;;2.35;;
19808;SDS011;48538;32.784;-96.802;2023-06-24T00:23:56;5.78;;;2.30;;
19808;SDS011;48538;32.784;-96.802;2023-06-24T00:26:23;4.65;;;2.92;;
19808;SDS011;48538;32.784;-96.802;2023-06-24T00:28:50;4.28;;;2.58;;
19808;SDS011;48538;32.784;-96.802;2023-06-24T00:31:16;6.25;;;2.42;;
19808;SDS011;48538;32.784;-96.802;2023-06-24T00:33:43;3.70;;;2.63;;
19808;SDS011;48538;32.784;-96.802;2023-06-24T00:36:09;4.63;;;2.40;;
19808;SDS011;48538;32.784;-96.802;2023-06-24T00:38:39;4.47;;;2.67;;
19808;SDS011;48538;32.784;-96.802;2023-06-24T00:41:06;6.30;;;2.60;;
19808;SDS011;48538;32.784;-96.802;2023-06-24T00:43:33;4.85;;;2.65;;
19808;SDS011;48538;32.784;-96.802;2023-06-24T00:45:59;54.25;;;22.48;;
19808;SDS011;48538;32.784;-96.802;2023-06-24T00:48:26;5.57;;;3.17;;
19808;SDS011;48538;32.784;-96.802;2023-06-24T00:50:52;5.55;;;2.38;;
19808;SDS011;48538;32.784;-96.802;2023-06-24T00:53:18;3.65;;;2.10;;
19808;SDS011;48538;32.784;-96.802;2023-06-24T00:55:50;3.78;;;2.35;;
19808;SDS011;48538;32.784;-96.802;2023-06-24T00:58:19;5.53;;;2.30;;
19808;SDS011;48538;32.784;-96.802;2023-06-24T01:00:46;6.25;;;2.20;;
19808;SDS011;48538;32.784;-96.802;2023-06-24T01:03:25;3.72;;;2.17;;
19808;SDS011;48538;32.784;-96.802;2023-06-24T01:05:55;4.05;;;2.50;;
19808;SDS011;48538;32.784;-96.802;2023-06-24T01:08:22;2.22;;;1.98;;
19808;SDS011;48538;32.784;-96.802;2023-06-24T01:10:49;4.82;;;2.35;;
19808;SDS011;48538;32.784;-96.802;2023-06-24T01:13:18;4.82;;;2.63;;
19808;SDS011;48538;32.784;-96.802;2023-06-24T01:15:45;3.80;;;2.22;;
19808;SDS011;48538;32.784;-96.802;2023-06-24T01:18:24;3.65;;;2.90;;
19808;SDS011;48538;32.784;-96.802;2023-06-24T01:32:01;3.95;;;2.25;;
19808;SDS011;48538;32.784;-96.802;2023-06-24T01:34:47;6.88;;;2.60;;
19808;SDS011;48538;32.784;-96.802;2023-06-24T01:40:07;4.18;;;3.30;;
19808;SDS011;48538;32.784;-96.802;2023-06-24T01:42:42;6.80;;;3.28;;
19808;SDS011;48538;32.784;-96.802;2023-06-24T01:45:14;6.80;;;3.17;;
19808;SDS011;48538;32.784;-96.802;2023-06-24T01:47:45;4.28;;;3.17;;
19808;SDS011;48538;32.784;-96.802;2023-06-24T01:50:13;6.60;;;3.75;;
19808;SDS011;48538;32.784;-96.802;2023-06-24T01:52:43;5.35;;;3.35;;
19808;SDS011;48538;32.784;-96.802;2023-06-24T01:55:11;4.70;;;3.47;;
19808;SDS011;48538;32.784;-96.802;2023-06-24T01:57:44;5.38;;;3.65;;
19808;SDS011;48538;32.784;-96.802;2023-06-24T02:00:14;7.15;;;3.67;;
19808;SDS011;48538;32.784;-96.802;2023-06-24T02:02:42;6.60;;;3.80;;
19808;SDS011;48538;32.784;-96.802;2023-06-24T02:05:10;7.30;;;3.70;;
19808;SDS011;48538;32.784;-96.802;2023-06-24T02:07:39;7.10;;;4.20;;
19808;SDS011;48538;32.784;-96.802;2023-06-24T02:10:08;5.97;;;3.78;;
19808;SDS011;48538;32.784;-96.802;2023-06-24T02:12:35;6.20;;;3.92;;
19808;SDS011;48538;32.784;-96.802;2023-06-24T02:15:03;5.07;;;4.03;;
19808;SDS011;48538;32.784;-96.802;2023-06-24T02:17:32;8.38;;;4.30;;
19808;SDS011;48538;32.784;-96.802;2023-06-24T02:19:59;6.22;;;4.72;;
19808;SDS011;48538;32.784;-96.802;2023-06-24T02:22:27;7.18;;;4.00;;
19808;SDS011;48538;32.784;-96.802;2023-06-24T02:24:53;8.07;;;4.72;;
19808;SDS011;48538;32.784;-96.802;2023-06-24T02:27:20;9.13;;;4.65;;
19808;SDS011;48538;32.784;-96.802;2023-06-24T02:29:47;7.97;;;4.70;;
19808;SDS011;48538;32.784;-96.802;2023-06-24T02:32:15;7.85;;;4.60;;
19808;SDS011;48538;32.784;-96.802;2023-06-24T02:34:41;7.05;;;4.20;;
19808;SDS011;48538;32.784;-96.802;2023-06-24T02:37:08;5.82;;;4.80;;
19808;SDS011;48538;32.784;-96.802;2023-06-24T02:39:34;7.65;;;5.40;;
19808;SDS011;48538;32.784;-96.802;2023-06-24T02:42:03;8.77;;;5.32;;
19808;SDS011;48538;32.784;-96.802;2023-06-24T02:44:29;8.73;;;5.43;;
19808;SDS011;48538;32.784;-96.802;2023-06-24T02:46:56;6.15;;;5.15;;
19808;SDS011;48538;32.784;-96.802;2023-06-24T02:49:22;6.95;;;5.07;;
19808;SDS011;48538;32.784;-96.802;2023-06-24T02:51:50;7.60;;;5.10;;
19808;SDS011;48538;32.784;-96.802;2023-06-24T02:54:17;8.35;;;5.43;;
19808;SDS011;48538;32.784;-96.802;2023-06-24T02:56:43;8.32;;;5.72;;
19808;SDS011;48538;32.784;-96.802;2023-06-24T02:59:10;6.10;;;5.30;;
19808;SDS011;48538;32.784;-96.802;2023-06-24T03:01:37;10.35;;;5.47;;
19808;SDS011;48538;32.784;-96.802;2023-06-24T03:04:05;7.43;;;5.72;;
19808;SDS011;48538;32.784;-96.802;2023-06-24T03:06:32;8.13;;;5.70;;
19808;SDS011;48538;32.784;-96.802;2023-06-24T03:09:01;8.32;;;5.05;;
19808;SDS011;48538;32.784;-96.802;2023-06-24T03:11:29;7.88;;;5.85;;
19808;SDS011;48538;32.784;-96.802;2023-06-24T03:13:55;9.77;;;5.93;;
19808;SDS011;48538;32.784;-96.802;2023-06-24T03:16:21;9.48;;;5.70;;
19808;SDS011;48538;32.784;-96.802;2023-06-24T03:18:48;8.55;;;6.05;;
19808;SDS011;48538;32.784;-96.802;2023-06-24T03:21:14;13.05;;;6.75;;
19808;SDS011;48538;32.784;-96.802;2023-06-24T03:23:40;10.90;;;6.95;;
19808;SDS011;48538;32.784;-96.802;2023-06-24T03:26:07;8.63;;;6.45;;
19808;SDS011;48538;32.784;-96.802;2023-06-24T03:28:33;8.70;;;6.03;;
19808;SDS011;48538;32.784;-96.802;2023-06-24T03:30:59;9.38;;;6.45;;
19808;SDS011;48538;32.784;-96.802;2023-06-24T03:33:26;8.93;;;6.32;;
19808;SDS011;48538;32.784;-96.802;2023-06-24T03:35:52;10.45;;;6.40;;
19808;SDS011;48538;32.784;-96.802;2023-06-24T03:38:20;8.38;;;6.40;;
19808;SDS011;48538;32.784;-96.802;2023-06-24T03:40:46;9.07;;;6.68;;
19808;SDS011;48538;32.784;-96.802;2023-06-24T03:43:13;7.47;;;6.20;;
19808;SDS011;48538;32.784;-96.802;2023-06-24T03:45:39;9.63;;;6.53;;
19808;SDS011;48538;32.784;-96.802;2023-06-24T03:48:05;11.50;;;7.95;;
19808;SDS011;48538;32.784;-96.802;2023-06-24T03:50:32;10.95;;;7.07;;
19808;SDS011;48538;32.784;-96.802;2023-06-24T03:52:58;11.25;;;7.28;;
19808;SDS011;48538;32.784;-96.802;2023-06-24T03:55:24;12.20;;;7.30;;
19808;SDS011;48538;32.784;-96.802;2023-06-24T03:57:50;11.40;;;7.47;;
19808;SDS011;48538;32.784;-96.802;2023-06-24T04:00:17;9.50;;;6.80;;
19808;SDS011;48538;32.784;-96.802;2023-06-24T04:02:46;14.07;;;7.30;;
19808;SDS011;48538;32.784;-96.802;2023-06-24T04:05:12;10.35;;;6.82;;
19808;SDS011;48538;32.784;-96.802;2023-06-24T04:07:39;10.63;;;7.50;;
19808;SDS011;48538;32.784;-96.802;2023-06-24T04:10:05;10.50;;;7.20;;
19808;SDS011;48538;32.784;-96.802;2023-06-24T04:12:36;9.85;;;7.63;;
19808;SDS011;48538;32.784;-96.802;2023-06-24T04:15:03;9.63;;;7.10;;
19808;SDS011;48538;32.784;-96.802;2023-06-24T04:17:30;13.82;;;8.07;;
19808;SDS011;48538;32.784;-96.802;2023-06-24T04:19:57;8.63;;;6.72;;
19808;SDS011;48538;32.784;-96.802;2023-06-24T04:22:24;10.95;;;7.53;;
19808;SDS011;48538;32.784;-96.802;2023-06-24T04:24:51;9.95;;;6.95;;
19808;SDS011;48538;32.784;-96.802;2023-06-24T04:27:17;12.20;;;8.00;;
19808;SDS011;48538;32.784;-96.802;2023-06-24T04:29:43;9.75;;;7.15;;
19808;SDS011;48538;32.784;-96.802;2023-06-24T04:32:10;10.38;;;7.55;;
19808;SDS011;48538;32.784;-96.802;2023-06-24T04:34:36;11.65;;;7.47;;
19808;SDS011;48538;32.784;-96.802;2023-06-24T04:37:05;11.60;;;7.70;;
19808;SDS011;48538;32.784;-96.802;2023-06-24T04:39:31;11.52;;;7.60;;
19808;SDS011;48538;32.784;-96.802;2023-06-24T04:41:58;12.20;;;8.10;;
19808;SDS011;48538;32.784;-96.802;2023-06-24T04:44:24;10.63;;;8.10;;
19808;SDS011;48538;32.784;-96.802;2023-06-24T04:46:51;12.25;;;8.00;;
19808;SDS011;48538;32.784;-96.802;2023-06-24T04:49:18;48.78;;;25.42;;
19808;SDS011;48538;32.784;-96.802;2023-06-24T04:51:44;14.00;;;8.85;;
19808;SDS011;48538;32.784;-96.802;2023-06-24T04:54:10;12.52;;;7.95;;
19808;SDS011;48538;32.784;-96.802;2023-06-24T04:56:37;12.05;;;8.65;;
19808;SDS011;48538;32.784;-96.802;2023-06-24T04:59:05;12.40;;;8.00;;
19808;SDS011;48538;32.784;-96.802;2023-06-24T05:01:31;13.02;;;8.27;;
19808;SDS011;48538;32.784;-96.802;2023-06-24T05:03:57;11.07;;;8.40;;
19808;SDS011;48538;32.784;-96.802;2023-06-24T05:06:23;11.80;;;8.07;;
19808;SDS011;48538;32.784;-96.802;2023-06-24T05:08:50;11.15;;;8.48;;
19808;SDS011;48538;32.784;-96.802;2023-06-24T05:11:16;14.32;;;8.05;;
19808;SDS011;48538;32.784;-96.802;2023-06-24T05:13:42;11.10;;;8.00;;
19808;SDS011;48538;32.784;-96.802;2023-06-24T05:16:08;12.27;;;8.43;;
19808;SDS011;48538;32.784;-96.802;2023-06-24T05:18:35;12.07;;;8.57;;
19808;SDS011;48538;32.784;-96.802;2023-06-24T05:21:01;13.65;;;8.25;;
19808;SDS011;48538;32.784;-96.802;2023-06-24T05:23:27;11.23;;;8.35;;
19808;SDS011;48538;32.784;-96.802;2023-06-24T05:25:54;11.18;;;8.43;;
19808;SDS011;48538;32.784;-96.802;2023-06-24T05:28:20;13.80;;;8.63;;
19808;SDS011;48538;32.784;-96.802;2023-06-24T05:30:46;12.73;;;8.48;;
19808;SDS011;48538;32.784;-96.802;2023-06-24T05:33:12;9.98;;;7.88;;
19808;SDS011;48538;32.784;-96.802;2023-06-24T05:35:40;11.55;;;8.98;;
19808;SDS011;48538;32.784;-96.802;2023-06-24T05:38:08;12.90;;;8.40;;
19808;SDS011;48538;32.784;-96.802;2023-06-24T05:40:34;11.77;;;8.40;;
19808;SDS011;48538;32.784;-96.802;2023-06-24T05:43:00;13.00;;;8.70;;
19808;SDS011;48538;32.784;-96.802;2023-06-24T05:45:28;11.07;;;8.50;;
19808;SDS011;48538;32.784;-96.802;2023-06-24T05:47:54;12.60;;;8.07;;
19808;SDS011;48538;32.784;-96.802;2023-06-24T05:50:20;11.65;;;7.95;;
19808;SDS011;48538;32.784;-96.802;2023-06-24T05:52:47;11.27;;;8.35;;
19808;SDS011;48538;32.784;-96.802;2023-06-24T05:55:13;13.35;;;8.13;;
19808;SDS011;48538;32.784;-96.802;2023-06-24T05:57:39;14.93;;;8.32;;
19808;SDS011;48538;32.784;-96.802;2023-06-24T06:00:06;13.07;;;9.27;;
19808;SDS011;48538;32.784;-96.802;2023-06-24T06:02:32;13.25;;;8.57;;
19808;SDS011;48538;32.784;-96.802;2023-06-24T06:04:59;13.85;;;9.35;;
19808;SDS011;48538;32.784;-96.802;2023-06-24T06:07:26;14.68;;;8.98;;
19808;SDS011;48538;32.784;-96.802;2023-06-24T06:09:52;12.70;;;8.88;;
19808;SDS011;48538;32.784;-96.802;2023-06-24T06:12:19;11.82;;;8.95;;
19808;SDS011;48538;32.784;-96.802;2023-06-24T06:14:45;12.55;;;9.45;;
19808;SDS011;48538;32.784;-96.802;2023-06-24T06:17:12;15.60;;;8.40;;
19808;SDS011;48538;32.784;-96.802;2023-06-24T06:19:39;13.80;;;9.13;;
19808;SDS011;48538;32.784;-96.802;2023-06-24T06:22:07;10.60;;;8.10;;
19808;SDS011;48538;32.784;-96.802;2023-06-24T06:24:33;10.80;;;8.20;;
19808;SDS011;48538;32.784;-96.802;2023-06-24T06:26:59;11.43;;;8.45;;
19808;SDS011;48538;32.784;-96.802;2023-06-24T06:29:26;11.05;;;8.48;;
19808;SDS011;48538;32.784;-96.802;2023-06-24T06:31:52;15.23;;;9.50;;
19808;SDS011;48538;32.784;-96.802;2023-06-24T06:34:20;14.43;;;9.32;;
19808;SDS011;48538;32.784;-96.802;2023-06-24T06:36:46;13.32;;;9.27;;
19808;SDS011;48538;32.784;-96.802;2023-06-24T06:39:12;15.60;;;9.65;;
19808;SDS011;48538;32.784;-96.802;2023-06-24T06:41:39;12.32;;;8.73;;
19808;SDS011;48538;32.784;-96.802;2023-06-24T06:44:05;13.43;;;9.05;;
19808;SDS011;48538;32.784;-96.802;2023-06-24T06:46:32;14.90;;;9.50;;
19808;SDS011;48538;32.784;-96.802;2023-06-24T06:48:58;14.23;;;9.30;;
19808;SDS011;48538;32.784;-96.802;2023-06-24T06:51:25;12.55;;;8.43;;
19808;SDS011;48538;32.784;-96.802;2023-06-24T06:53:51;14.90;;;9.57;;
19808;SDS011;48538;32.784;-96.802;2023-06-24T06:56:24;12.70;;;9.88;;
19808;SDS011;48538;32.784;-96.802;2023-06-24T06:58:51;15.55;;;9.80;;
19808;SDS011;48538;32.784;-96.802;2023-06-24T07:01:18;16.92;;;10.60;;
19808;SDS011;48538;32.784;-96.802;2023-06-24T07:03:44;15.77;;;9.98;;
19808;SDS011;48538;32.784;-96.802;2023-06-24T07:06:11;13.95;;;10.10;;
19808;SDS011;48538;32.784;-96.802;2023-06-24T07:08:37;17.45;;;9.75;;
19808;SDS011;48538;32.784;-96.802;2023-06-24T07:11:03;15.25;;;10.07;;
19808;SDS011;48538;32.784;-96.802;2023-06-24T07:13:30;15.02;;;9.48;;
19808;SDS011;48538;32.784;-96.802;2023-06-24T07:15:56;13.55;;;10.57;;
19808;SDS011;48538;32.784;-96.802;2023-06-24T07:18:22;14.02;;;10.30;;
19808;SDS011;48538;32.784;-96.802;2023-06-24T07:20:49;15.60;;;10.10;;
19808;SDS011;48538;32.784;-96.802;2023-06-24T07:23:15;14.05;;;10.27;;
19808;SDS011;48538;32.784;-96.802;2023-06-24T07:25:41;15.82;;;10.00;;
19808;SDS011;48538;32.784;-96.802;2023-06-24T07:28:07;14.65;;;10.55;;
19808;SDS011;48538;32.784;-96.802;2023-06-24T07:30:34;17.02;;;9.77;;
19808;SDS011;48538;32.784;-96.802;2023-06-24T07:33:00;14.02;;;9.63;;
19808;SDS011;48538;32.784;-96.802;2023-06-24T07:35:31;13.63;;;9.50;;
19808;SDS011;48538;32.784;-96.802;2023-06-24T07:38:00;14.27;;;9.70;;
19808;SDS011;48538;32.784;-96.802;2023-06-24T07:40:26;13.70;;;9.85;;
19808;SDS011;48538;32.784;-96.802;2023-06-24T07:42:53;15.88;;;10.75;;
19808;SDS011;48538;32.784;-96.802;2023-06-24T07:45:19;15.23;;;10.07;;
19808;SDS011;48538;32.784;-96.802;2023-06-24T07:47:46;17.10;;;10.43;;
19808;SDS011;48538;32.784;-96.802;2023-06-24T07:50:12;14.75;;;9.90;;
19808;SDS011;48538;32.784;-96.802;2023-06-24T07:52:39;15.57;;;9.75;;
19808;SDS011;48538;32.784;-96.802;2023-06-24T07:55:05;14.45;;;10.43;;
19808;SDS011;48538;32.784;-96.802;2023-06-24T07:57:31;14.43;;;10.13;;
19808;SDS011;48538;32.784;-96.802;2023-06-24T07:59:58;15.30;;;11.23;;
19808;SDS011;48538;32.784;-96.802;2023-06-24T08:02:24;18.88;;;10.90;;
19808;SDS011;48538;32.784;-96.802;2023-06-24T08:04:51;13.55;;;10.70;;
19808;SDS011;48538;32.784;-96.802;2023-06-24T08:07:17;14.60;;;9.90;;
19808;SDS011;48538;32.784;-96.802;2023-06-24T08:09:44;17.35;;;11.40;;
19808;SDS011;48538;32.784;-96.802;2023-06-24T08:12:10;18.10;;;11.38;;
19808;SDS011;48538;32.784;-96.802;2023-06-24T08:14:36;15.73;;;10.48;;
19808;SDS011;48538;32.784;-96.802;2023-06-24T08:17:03;20.63;;;11.52;;
19808;SDS011;48538;32.784;-96.802;2023-06-24T08:19:29;13.85;;;10.25;;
19808;SDS011;48538;32.784;-96.802;2023-06-24T08:21:55;16.80;;;10.98;;
19808;SDS011;48538;32.784;-96.802;2023-06-24T08:24:21;18.80;;;10.55;;
19808;SDS011;48538;32.784;-96.802;2023-06-24T08:26:48;19.33;;;11.63;;
19808;SDS011;48538;32.784;-96.802;2023-06-24T08:29:14;15.38;;;10.48;;
19808;SDS011;48538;32.784;-96.802;2023-06-24T08:31:40;15.90;;;11.13;;
19808;SDS011;48538;32.784;-96.802;2023-06-24T08:34:06;18.42;;;11.40;;
19808;SDS011;48538;32.784;-96.802;2023-06-24T08:36:33;17.08;;;11.13;;
19808;SDS011;48538;32.784;-96.802;2023-06-24T08:38:59;19.55;;;11.30;;
19808;SDS011;48538;32.784;-96.802;2023-06-24T08:41:25;18.77;;;11.25;;
19808;SDS011;48538;32.784;-96.802;2023-06-24T08:43:52;18.58;;;12.52;;
19808;SDS011;48538;32.784;-96.802;2023-06-24T08:46:19;20.63;;;12.25;;
19808;SDS011;48538;32.784;-96.802;2023-06-24T08:48:48;19.58;;;13.00;;
19808;SDS011;48538;32.784;-96.802;2023-06-24T08:51:18;22.63;;;12.80;;
19808;SDS011;48538;32.784;-96.802;2023-06-24T08:53:48;20.30;;;12.18;;
19808;SDS011;48538;32.784;-96.802;2023-06-24T08:56:15;17.95;;;12.40;;
19808;SDS011;48538;32.784;-96.802;2023-06-24T08:58:42;18.13;;;12.52;;
19808;SDS011;48538;32.784;-96.802;2023-06-24T09:01:08;16.38;;;12.55;;
19808;SDS011;48538;32.784;-96.802;2023-06-24T09:03:35;18.33;;;12.27;;
19808;SDS011;48538;32.784;-96.802;2023-06-24T09:06:01;21.90;;;13.27;;
19808;SDS011;48538;32.784;-96.802;2023-06-24T09:08:27;21.88;;;13.48;;
19808;SDS011;48538;32.784;-96.802;2023-06-24T09:10:54;22.38;;;12.52;;
19808;SDS011;48538;32.784;-96.802;2023-06-24T09:13:36;23.15;;;14.10;;
19808;SDS011;48538;32.784;-96.802;2023-06-24T09:16:12;18.58;;;12.75;;
19808;SDS011;48538;32.784;-96.802;2023-06-24T09:18:42;19.95;;;12.95;;
19808;SDS011;48538;32.784;-96.802;2023-06-24T09:21:17;22.98;;;12.57;;
19808;SDS011;48538;32.784;-96.802;2023-06-24T09:23:50;19.05;;;13.20;;
19808;SDS011;48538;32.784;-96.802;2023-06-24T09:26:23;19.75;;;12.98;;
19808;SDS011;48538;32.784;-96.802;2023-06-24T09:28:50;17.13;;;12.50;;
19808;SDS011;48538;32.784;-96.802;2023-06-24T09:31:17;17.58;;;11.73;;
19808;SDS011;48538;32.784;-96.802;2023-06-24T09:33:44;21.65;;;11.98;;
19808;SDS011;48538;32.784;-96.802;2023-06-24T09:36:12;19.02;;;11.88;;
19808;SDS011;48538;32.784;-96.802;2023-06-24T09:38:42;17.38;;;12.23;;
19808;SDS011;48538;32.784;-96.802;2023-06-24T09:41:13;17.92;;;12.68;;
19808;SDS011;48538;32.784;-96.802;2023-06-24T09:43:40;17.42;;;12.18;;
19808;SDS011;48538;32.784;-96.802;2023-06-24T09:46:09;16.75;;;11.57;;
19808;SDS011;48538;32.784;-96.802;2023-06-24T09:48:35;18.50;;;11.88;;
19808;SDS011;48538;32.784;-96.802;2023-06-24T09:51:02;16.35;;;11.65;;
19808;SDS011;48538;32.784;-96.802;2023-06-24T09:53:33;16.80;;;11.82;;
19808;SDS011;48538;32.784;-96.802;2023-06-24T09:56:01;19.45;;;13.43;;
19808;SDS011;48538;32.784;-96.802;2023-06-24T09:58:31;17.65;;;12.60;;
19808;SDS011;48538;32.784;-96.802;2023-06-24T10:01:01;18.38;;;12.23;;
19808;SDS011;48538;32.784;-96.802;2023-06-24T10:03:30;20.60;;;12.68;;
19808;SDS011;48538;32.784;-96.802;2023-06-24T10:06:00;22.15;;;13.07;;
19808;SDS011;48538;32.784;-96.802;2023-06-24T10:08:29;20.38;;;12.50;;
19808;SDS011;48538;32.784;-96.802;2023-06-24T10:10:56;16.98;;;12.60;;
19808;SDS011;48538;32.784;-96.802;2023-06-24T10:13:22;17.92;;;13.10;;
19808;SDS011;48538;32.784;-96.802;2023-06-24T10:15:49;18.48;;;12.23;;
19808;SDS011;48538;32.784;-96.802;2023-06-24T10:20:59;18.70;;;12.85;;
19808;SDS011;48538;32.784;-96.802;2023-06-24T10:23:33;16.80;;;12.48;;
19808;SDS011;48538;32.784;-96.802;2023-06-24T10:26:09;22.63;;;13.60;;
19808;SDS011;48538;32.784;-96.802;2023-06-24T10:36:59;25.83;;;14.90;;
19808;SDS011;48538;32.784;-96.802;2023-06-24T10:44:57;23.67;;;14.00;;
19808;SDS011;48538;32.784;-96.802;2023-06-24T10:47:42;21.60;;;13.77;;
19808;SDS011;48538;32.784;-96.802;2023-06-24T10:50:11;24.48;;;15.15;;
19808;SDS011;48538;32.784;-96.802;2023-06-24T10:52:43;21.92;;;14.90;;
19808;SDS011;48538;32.784;-96.802;2023-06-24T10:55:15;22.55;;;15.40;;
19808;SDS011;48538;32.784;-96.802;2023-06-24T10:57:41;20.95;;;14.75;;
19808;SDS011;48538;32.784;-96.802;2023-06-24T11:00:08;21.85;;;15.20;;
19808;SDS011;48538;32.784;-96.802;2023-06-24T11:02:36;24.30;;;15.15;;
19808;SDS011;48538;32.784;-96.802;2023-06-24T11:05:02;24.45;;;15.48;;
19808;SDS011;48538;32.784;-96.802;2023-06-24T11:07:30;24.08;;;15.68;;
19808;SDS011;48538;32.784;-96.802;2023-06-24T11:10:03;25.88;;;15.23;;
19808;SDS011;48538;32.784;-96.802;2023-06-24T11:12:32;24.00;;;15.90;;
19808;SDS011;48538;32.784;-96.802;2023-06-24T11:15:03;26.83;;;15.20;;
19808;SDS011;48538;32.784;-96.802;2023-06-24T11:17:30;27.67;;;15.98;;
19808;SDS011;48538;32.784;-96.802;2023-06-24T11:19:58;23.63;;;15.52;;
19808;SDS011;48538;32.784;-96.802;2023-06-24T11:22:25;27.17;;;16.33;;
19808;SDS011;48538;32.784;-96.802;2023-06-24T11:24:52;23.25;;;16.70;;
19808;SDS011;48538;32.784;-96.802;2023-06-24T11:27:29;25.73;;;17.00;;
19808;SDS011;48538;32.784;-96.802;2023-06-24T11:29:59;29.15;;;16.05;;
19808;SDS011;48538;32.784;-96.802;2023-06-24T11:32:40;21.52;;;16.92;;
19808;SDS011;48538;32.784;-96.802;2023-06-24T11:35:08;25.55;;;16.20;;
19808;SDS011;48538;32.784;-96.802;2023-06-24T11:37:35;27.27;;;15.75;;
19808;SDS011;48538;32.784;-96.802;2023-06-24T11:40:06;23.35;;;16.63;;
19808;SDS011;48538;32.784;-96.802;2023-06-24T11:42:36;27.70;;;15.65;;
19808;SDS011;48538;32.784;-96.802;2023-06-24T11:45:06;26.45;;;15.85;;
19808;SDS011;48538;32.784;-96.802;2023-06-24T11:47:33;23.40;;;15.00;;
19808;SDS011;48538;32.784;-96.802;2023-06-24T11:50:00;24.67;;;15.07;;
19808;SDS011;48538;32.784;-96.802;2023-06-24T11:52:38;21.77;;;15.82;;
19808;SDS011;48538;32.784;-96.802;2023-06-24T11:55:13;21.67;;;15.38;;
19808;SDS011;48538;32.784;-96.802;2023-06-24T11:57:50;20.23;;;14.27;;
19808;SDS011;48538;32.784;-96.802;2023-06-24T12:00:31;20.15;;;13.93;;
19808;SDS011;48538;32.784;-96.802;2023-06-24T12:03:04;20.77;;;14.30;;
19808;SDS011;48538;32.784;-96.802;2023-06-24T12:05:31;22.10;;;13.93;;
19808;SDS011;48538;32.784;-96.802;2023-06-24T12:08:00;19.67;;;13.10;;
19808;SDS011;48538;32.784;-96.802;2023-06-24T12:10:28;20.20;;;13.90;;
19808;SDS011;48538;32.784;-96.802;2023-06-24T12:12:57;18.25;;;13.48;;
19808;SDS011;48538;32.784;-96.802;2023-06-24T12:15:24;23.70;;;13.63;;
19808;SDS011;48538;32.784;-96.802;2023-06-24T12:17:50;20.67;;;13.88;;
19808;SDS011;48538;32.784;-96.802;2023-06-24T12:20:17;17.88;;;12.95;;
19808;SDS011;48538;32.784;-96.802;2023-06-24T12:22:44;19.63;;;13.30;;
19808;SDS011;48538;32.784;-96.802;2023-06-24T12:25:13;21.33;;;12.45;;
19808;SDS011;48538;32.784;-96.802;2023-06-24T12:27:39;17.63;;;12.80;;
19808;SDS011;48538;32.784;-96.802;2023-06-24T12:30:07;16.23;;;12.50;;
19808;SDS011;48538;32.784;-96.802;2023-06-24T12:32:34;17.48;;;12.68;;
19808;SDS011;48538;32.784;-96.802;2023-06-24T12:35:00;17.60;;;11.82;;
19808;SDS011;48538;32.784;-96.802;2023-06-24T12:37:31;16.35;;;12.23;;
19808;SDS011;48538;32.784;-96.802;2023-06-24T12:40:04;21.10;;;12.32;;
19808;SDS011;48538;32.784;-96.802;2023-06-24T12:42:31;19.65;;;11.77;;
19808;SDS011;48538;32.784;-96.802;2023-06-24T12:44:57;19.92;;;11.55;;
19808;SDS011;48538;32.784;-96.802;2023-06-24T12:47:24;15.60;;;11.95;;
19808;SDS011;48538;32.784;-96.802;2023-06-24T12:49:51;19.75;;;12.25;;
19808;SDS011;48538;32.784;-96.802;2023-06-24T12:52:18;20.55;;;12.25;;
19808;SDS011;48538;32.784;-96.802;2023-06-24T12:54:45;20.45;;;12.00;;
19808;SDS011;48538;32.784;-96.802;2023-06-24T12:57:11;18.55;;;11.43;;
19808;SDS011;48538;32.784;-96.802;2023-06-24T12:59:37;15.40;;;11.02;;
19808;SDS011;48538;32.784;-96.802;2023-06-24T13:02:03;16.65;;;11.40;;
19808;SDS011;48538;32.784;-96.802;2023-06-24T13:04:30;18.48;;;11.77;;
19808;SDS011;48538;32.784;-96.802;2023-06-24T13:06:56;14.05;;;10.73;;
19808;SDS011;48538;32.784;-96.802;2023-06-24T13:09:23;18.45;;;12.10;;
19808;SDS011;48538;32.784;-96.802;2023-06-24T13:11:49;14.93;;;10.80;;
19808;SDS011;48538;32.784;-96.802;2023-06-24T13:14:16;18.08;;;11.05;;
19808;SDS011;48538;32.784;-96.802;2023-06-24T13:16:43;15.10;;;10.63;;
19808;SDS011;48538;32.784;-96.802;2023-06-24T13:19:09;16.90;;;10.98;;
19808;SDS011;48538;32.784;-96.802;2023-06-24T13:21:35;17.40;;;10.70;;
19808;SDS011;48538;32.784;-96.802;2023-06-24T13:24:02;13.48;;;10.68;;
19808;SDS011;48538;32.784;-96.802;2023-06-24T13:26:28;14.77;;;10.57;;
19808;SDS011;48538;32.784;-96.802;2023-06-24T13:28:54;16.88;;;11.05;;
19808;SDS011;48538;32.784;-96.802;2023-06-24T13:31:21;13.98;;;9.70;;
19808;SDS011;48538;32.784;-96.802;2023-06-24T13:33:47;14.68;;;9.65;;
19808;SDS011;48538;32.784;-96.802;2023-06-24T13:36:27;17.83;;;9.88;;
19808;SDS011;48538;32.784;-96.802;2023-06-24T13:38:56;12.77;;;8.90;;
19808;SDS011;48538;32.784;-96.802;2023-06-24T13:41:22;15.30;;;9.50;;
19808;SDS011;48538;32.784;-96.802;2023-06-24T13:43:51;14.32;;;9.15;;
19808;SDS011;48538;32.784;-96.802;2023-06-24T13:46:17;19.27;;;9.65;;
19808;SDS011;48538;32.784;-96.802;2023-06-24T13:48:43;15.77;;;9.57;;
19808;SDS011;48538;32.784;-96.802;2023-06-24T13:51:10;17.35;;;9.32;;
19808;SDS011;48538;32.784;-96.802;2023-06-24T13:53:36;16.13;;;9.60;;
19808;SDS011;48538;32.784;-96.802;2023-06-24T13:56:03;17.08;;;8.93;;
19808;SDS011;48538;32.784;-96.802;2023-06-24T13:58:29;14.82;;;9.10;;
19808;SDS011;48538;32.784;-96.802;2023-06-24T14:00:55;19.73;;;9.27;;
19808;SDS011;48538;32.784;-96.802;2023-06-24T14:03:22;14.20;;;8.32;;
19808;SDS011;48538;32.784;-96.802;2023-06-24T14:05:48;16.50;;;8.35;;
19808;SDS011;48538;32.784;-96.802;2023-06-24T14:08:14;15.25;;;8.00;;
19808;SDS011;48538;32.784;-96.802;2023-06-24T14:10:41;11.50;;;8.02;;
19808;SDS011;48538;32.784;-96.802;2023-06-24T14:13:07;15.00;;;8.55;;
19808;SDS011;48538;32.784;-96.802;2023-06-24T14:15:33;17.58;;;8.30;;
19808;SDS011;48538;32.784;-96.802;2023-06-24T14:17:59;12.90;;;7.43;;
19808;SDS011;48538;32.784;-96.802;2023-06-24T14:20:26;14.02;;;7.68;;
19808;SDS011;48538;32.784;-96.802;2023-06-24T14:22:52;14.15;;;8.02;;
19808;SDS011;48538;32.784;-96.802;2023-06-24T14:25:18;11.48;;;7.32;;
19808;SDS011;48538;32.784;-96.802;2023-06-24T14:27:44;19.30;;;8.30;;
19808;SDS011;48538;32.784;-96.802;2023-06-24T14:30:11;14.05;;;7.50;;
19808;SDS011;48538;32.784;-96.802;2023-06-24T14:32:37;13.45;;;7.22;;
19808;SDS011;48538;32.784;-96.802;2023-06-24T14:35:04;14.05;;;7.13;;
19808;SDS011;48538;32.784;-96.802;2023-06-24T14:37:30;12.52;;;7.57;;
19808;SDS011;48538;32.784;-96.802;2023-06-24T14:39:57;11.90;;;7.25;;